createdAt,value
2023-05-01T00:00:58.241Z,9.99
2023-05-01T00:01:58.351Z,9.98
2023-05-01T00:02:58.275Z,9.97
2023-05-01T00:03:59.068Z,9.95
2023-05-01T00:04:58.242Z,9.94
2023-05-01T00:05:58.174Z,9.93
2023-05-01T00:06:58.173Z,9.92
2023-05-01T00:07:58.148Z,9.90
2023-05-01T00:08:58.225Z,9.89
2023-05-01T00:09:58.396Z,9.87
2023-05-01T00:10:58.089Z,9.86
2023-05-01T00:11:58.351Z,9.85
2023-05-01T00:12:58.086Z,9.83
2023-05-01T00:13:58.051Z,9.82
2023-05-01T00:14:58.350Z,9.80
2023-05-01T00:15:58.054Z,9.79
2023-05-01T00:16:58.336Z,9.77
2023-05-01T00:17:58.087Z,9.76
2023-05-01T00:18:58.000Z,9.75
2023-05-01T00:19:58.284Z,9.73
2023-05-01T00:20:57.976Z,9.72
2023-05-01T00:21:57.961Z,9.70
2023-05-01T00:22:57.987Z,9.69
2023-05-01T00:23:58.412Z,9.68
2023-05-01T00:24:57.937Z,9.67
2023-05-01T00:25:58.565Z,9.66
2023-05-01T00:26:58.372Z,9.65
2023-05-01T00:27:58.859Z,9.65
2023-05-01T00:28:57.889Z,9.64
2023-05-01T00:29:58.117Z,9.64
2023-05-01T00:30:58.704Z,9.64
2023-05-01T00:31:58.406Z,9.64
2023-05-01T00:32:58.077Z,9.64
2023-05-01T00:33:58.203Z,9.65
2023-05-01T00:34:57.832Z,9.65
2023-05-01T00:35:57.794Z,9.64
2023-05-01T00:36:57.790Z,9.64
2023-05-01T00:37:57.774Z,9.64
2023-05-01T00:38:57.779Z,9.64
2023-05-01T00:39:58.349Z,9.63
2023-05-01T00:40:57.743Z,9.63
2023-05-01T00:41:57.714Z,9.62
2023-05-01T00:42:58.380Z,9.61
2023-05-01T00:43:57.691Z,9.61
2023-05-01T00:44:57.702Z,9.61
2023-05-01T00:45:57.750Z,9.60
2023-05-01T00:46:57.997Z,9.60
2023-05-01T00:47:58.020Z,9.59
2023-05-01T00:48:58.047Z,9.59
2023-05-01T00:49:57.878Z,9.59
2023-05-01T00:50:57.633Z,9.59
2023-05-01T00:51:57.608Z,9.58
2023-05-01T00:52:57.616Z,9.58
2023-05-01T00:53:57.578Z,9.58
2023-05-01T00:54:57.672Z,9.58
2023-05-01T00:55:57.706Z,9.58
2023-05-01T00:56:57.761Z,9.58
2023-05-01T00:57:57.588Z,9.58
2023-05-01T00:58:57.551Z,9.58
2023-05-01T00:59:58.047Z,9.57
2023-05-01T01:00:57.531Z,9.57
2023-05-01T01:01:57.483Z,9.56
2023-05-01T01:02:57.548Z,9.56
2023-05-01T01:03:57.548Z,9.56
2023-05-01T01:04:57.606Z,9.56
2023-05-01T01:05:57.434Z,9.56
2023-05-01T01:06:57.436Z,9.56
2023-05-01T01:07:57.423Z,9.56
2023-05-01T01:08:57.412Z,9.56
2023-05-01T01:09:57.615Z,9.56
2023-05-01T01:10:57.402Z,9.56
2023-05-01T01:11:57.369Z,9.56
2023-05-01T01:12:57.396Z,9.56
2023-05-01T01:13:57.348Z,9.55
2023-05-01T01:14:57.345Z,9.55
2023-05-01T01:15:57.339Z,9.55
2023-05-01T01:16:57.353Z,9.56
2023-05-01T01:17:57.337Z,9.56
2023-05-01T01:18:57.409Z,9.57
2023-05-01T01:19:57.632Z,9.57
2023-05-01T01:20:57.271Z,9.57
2023-05-01T01:21:57.405Z,9.58
2023-05-01T01:22:57.268Z,9.58
2023-05-01T01:23:57.230Z,9.58
2023-05-01T01:24:57.237Z,9.58
2023-05-01T01:25:57.204Z,9.58
2023-05-01T01:26:57.415Z,9.58
2023-05-01T01:27:57.407Z,9.58
2023-05-01T01:28:57.196Z,9.58
2023-05-01T01:29:57.444Z,9.58
2023-05-01T01:30:57.221Z,9.58
2023-05-01T01:31:57.414Z,9.58
2023-05-01T01:32:57.165Z,9.57
2023-05-01T01:33:57.143Z,9.57
2023-05-01T01:34:57.412Z,9.56
2023-05-01T01:35:57.089Z,9.56
2023-05-01T01:36:57.430Z,9.55
2023-05-01T01:37:57.451Z,9.55
2023-05-01T01:38:57.083Z,9.55
2023-05-01T01:39:57.645Z,9.55
2023-05-01T01:40:57.050Z,9.55
2023-05-01T01:41:57.020Z,9.54
2023-05-01T01:42:57.104Z,9.54
2023-05-01T01:43:57.118Z,9.54
2023-05-01T01:44:56.996Z,9.53
2023-05-01T01:45:57.039Z,9.53
2023-05-01T01:46:56.975Z,9.53
2023-05-01T01:47:57.212Z,9.53
2023-05-01T01:48:56.970Z,9.52
2023-05-01T01:49:57.108Z,9.52
2023-05-01T01:50:56.939Z,9.51
2023-05-01T01:51:56.903Z,9.51
2023-05-01T01:52:57.389Z,9.50
2023-05-01T01:53:56.905Z,9.50
2023-05-01T01:54:56.897Z,9.49
2023-05-01T01:55:56.862Z,9.49
2023-05-01T01:56:56.871Z,9.49
2023-05-01T01:57:56.836Z,9.48
2023-05-01T01:58:57.375Z,9.47
2023-05-01T01:59:57.037Z,9.47
2023-05-01T02:00:56.811Z,9.47
2023-05-01T02:01:57.556Z,9.47
2023-05-01T02:02:56.849Z,9.46
2023-05-01T02:03:56.877Z,9.46
2023-05-01T02:04:56.786Z,9.46
2023-05-01T02:05:56.765Z,9.46
2023-05-01T02:06:57.449Z,9.46
2023-05-01T02:07:57.463Z,9.46
2023-05-01T02:08:56.725Z,9.46
2023-05-01T02:09:56.961Z,9.46
2023-05-01T02:10:56.706Z,9.46
2023-05-01T02:11:57.488Z,9.46
2023-05-01T02:12:57.481Z,9.46
2023-05-01T02:13:57.339Z,9.46
2023-05-01T02:14:57.427Z,9.45
2023-05-01T02:15:56.684Z,9.45
2023-05-01T02:16:56.660Z,9.45
2023-05-01T02:17:56.629Z,9.44
2023-05-01T02:18:56.608Z,9.44
2023-05-01T02:19:56.740Z,9.44
2023-05-01T02:20:56.583Z,9.44
2023-05-01T02:21:56.554Z,9.43
2023-05-01T02:22:56.629Z,9.43
2023-05-01T02:23:56.636Z,9.43
2023-05-01T02:24:56.568Z,9.43
2023-05-01T02:25:56.665Z,9.43
2023-05-01T02:26:56.517Z,9.42
2023-05-01T02:27:56.500Z,9.42
2023-05-01T02:28:56.492Z,9.42
2023-05-01T02:29:56.686Z,9.41
2023-05-01T02:30:56.570Z,9.41
2023-05-01T02:31:56.780Z,9.41
2023-05-01T02:32:56.493Z,9.40
2023-05-01T02:33:57.871Z,9.39
2023-05-01T02:34:56.472Z,9.39
2023-05-01T02:35:56.466Z,9.38
2023-05-01T02:36:56.406Z,9.37
2023-05-01T02:37:57.832Z,9.37
2023-05-01T02:38:56.820Z,9.36
2023-05-01T02:39:56.584Z,9.36
2023-05-01T02:40:56.473Z,9.35
2023-05-01T02:41:56.632Z,9.35
2023-05-01T02:42:56.333Z,9.35
2023-05-01T02:43:56.450Z,9.35
2023-05-01T02:44:56.328Z,9.34
2023-05-01T02:45:56.361Z,9.34
2023-05-01T02:46:56.349Z,9.33
2023-05-01T02:47:56.568Z,9.33
2023-05-01T02:48:56.364Z,9.33
2023-05-01T02:49:56.647Z,9.33
2023-05-01T02:50:56.261Z,9.32
2023-05-01T02:51:56.209Z,9.32
2023-05-01T02:52:56.212Z,9.32
2023-05-01T02:53:57.037Z,9.32
2023-05-01T02:54:56.192Z,9.32
2023-05-01T02:55:57.075Z,9.32
2023-05-01T02:56:56.490Z,9.33
2023-05-01T02:57:57.091Z,9.33
2023-05-01T02:58:56.167Z,9.33
2023-05-01T02:59:57.368Z,9.33
2023-05-01T03:00:56.151Z,9.33
2023-05-01T03:01:56.102Z,9.33
2023-05-01T03:02:56.609Z,9.33
2023-05-01T03:03:56.193Z,9.33
2023-05-01T03:04:56.089Z,9.33
2023-05-01T03:05:56.524Z,9.33
2023-05-01T03:06:56.061Z,9.34
2023-05-01T03:07:56.497Z,9.34
2023-05-01T03:08:56.044Z,9.35
2023-05-01T03:09:56.270Z,9.35
2023-05-01T03:10:56.051Z,9.36
2023-05-01T03:11:55.993Z,9.36
2023-05-01T03:12:55.998Z,9.36
2023-05-01T03:13:55.964Z,9.37
2023-05-01T03:14:56.506Z,9.37
2023-05-01T03:15:56.518Z,9.37
2023-05-01T03:16:56.029Z,9.37
2023-05-01T03:17:56.000Z,9.37
2023-05-01T03:18:55.927Z,9.38
2023-05-01T03:19:56.163Z,9.38
2023-05-01T03:20:55.901Z,9.38
2023-05-01T03:21:55.868Z,9.38
2023-05-01T03:22:55.884Z,9.38
2023-05-01T03:23:55.839Z,9.37
2023-05-01T03:24:55.942Z,9.37
2023-05-01T03:25:55.835Z,9.37
2023-05-01T03:26:55.832Z,9.37
2023-05-01T03:27:55.828Z,9.37
2023-05-01T03:28:55.792Z,9.37
2023-05-01T03:29:55.962Z,9.37
2023-05-01T03:30:55.823Z,9.37
2023-05-01T03:31:55.850Z,9.37
2023-05-01T03:32:57.246Z,9.36
2023-05-01T03:33:55.721Z,9.36
2023-05-01T03:34:55.858Z,9.36
2023-05-01T03:35:55.823Z,9.36
2023-05-01T03:36:55.707Z,9.36
2023-05-01T03:37:55.674Z,9.37
2023-05-01T03:38:55.671Z,9.37
2023-05-01T03:39:55.942Z,9.37
2023-05-01T03:40:55.746Z,9.37
2023-05-01T03:41:55.688Z,9.37
2023-05-01T03:42:55.630Z,9.36
2023-05-01T03:43:55.622Z,9.36
2023-05-01T03:44:55.611Z,9.36
2023-05-01T03:45:55.779Z,9.36
2023-05-01T03:46:55.590Z,9.35
2023-05-01T03:47:55.674Z,9.35
2023-05-01T03:48:55.576Z,9.35
2023-05-01T03:49:55.833Z,9.34
2023-05-01T03:50:55.561Z,9.35
2023-05-01T03:51:55.565Z,9.35
2023-05-01T03:52:55.501Z,9.35
2023-05-01T03:53:55.536Z,9.35
2023-05-01T03:54:55.493Z,9.36
2023-05-01T03:55:55.488Z,9.36
2023-05-01T03:56:55.463Z,9.36
2023-05-01T03:57:55.437Z,9.36
2023-05-01T03:58:55.451Z,9.36
2023-05-01T03:59:56.011Z,9.36
2023-05-01T04:00:55.443Z,9.36
2023-05-01T04:01:55.530Z,9.36
2023-05-01T04:02:55.716Z,9.36
2023-05-01T04:03:55.478Z,9.36
2023-05-01T04:04:55.387Z,9.36
2023-05-01T04:05:55.407Z,9.36
2023-05-01T04:06:55.369Z,9.36
2023-05-01T04:07:55.343Z,9.36
2023-05-01T04:08:55.331Z,9.36
2023-05-01T04:09:55.485Z,9.36
2023-05-01T04:10:55.320Z,9.36
2023-05-01T04:11:55.298Z,9.36
2023-05-01T04:12:55.296Z,9.35
2023-05-01T04:13:55.289Z,9.35
2023-05-01T04:14:55.280Z,9.35
2023-05-01T04:15:55.371Z,9.35
2023-05-01T04:16:55.262Z,9.35
2023-05-01T04:17:55.292Z,9.35
2023-05-01T04:18:55.258Z,9.35
2023-05-01T04:19:55.519Z,9.35
2023-05-01T04:20:55.245Z,9.35
2023-05-01T04:21:55.271Z,9.35
2023-05-01T04:22:55.221Z,9.35
2023-05-01T04:23:55.163Z,9.35
2023-05-01T04:24:55.168Z,9.35
2023-05-01T04:25:55.174Z,9.34
2023-05-01T04:26:55.261Z,9.34
2023-05-01T04:27:55.166Z,9.33
2023-05-01T04:28:55.153Z,9.33
2023-05-01T04:29:55.319Z,9.33
2023-05-01T04:30:55.115Z,9.33
2023-05-01T04:31:55.233Z,9.33
2023-05-01T04:32:55.127Z,9.33
2023-05-01T04:33:55.151Z,9.34
2023-05-01T04:34:55.027Z,9.34
2023-05-01T04:35:55.267Z,9.34
2023-05-01T04:36:55.142Z,9.34
2023-05-01T04:37:54.982Z,9.34
2023-05-01T04:38:54.959Z,9.34
2023-05-01T04:39:55.338Z,9.35
2023-05-01T04:40:54.957Z,9.35
2023-05-01T04:41:54.934Z,9.35
2023-05-01T04:42:54.908Z,9.36
2023-05-01T04:43:54.910Z,9.36
2023-05-01T04:44:54.890Z,9.36
2023-05-01T04:45:54.906Z,9.36
2023-05-01T04:46:54.924Z,9.37
2023-05-01T04:47:54.892Z,9.37
2023-05-01T04:48:55.367Z,9.37
2023-05-01T04:49:55.182Z,9.38
2023-05-01T04:50:54.998Z,9.39
2023-05-01T04:51:54.818Z,9.39
2023-05-01T04:52:54.840Z,9.40
2023-05-01T04:53:54.796Z,9.41
2023-05-01T04:54:54.896Z,9.41
2023-05-01T04:55:54.784Z,9.41
2023-05-01T04:56:54.742Z,9.41
2023-05-01T04:57:54.981Z,9.40
2023-05-01T04:58:54.723Z,9.40
2023-05-01T04:59:54.962Z,9.40
2023-05-01T05:00:54.703Z,9.41
2023-05-01T05:01:54.827Z,9.42
2023-05-01T05:02:54.895Z,9.43
2023-05-01T05:03:54.815Z,9.43
2023-05-01T05:04:54.667Z,9.44
2023-05-01T05:05:54.846Z,9.44
2023-05-01T05:06:54.702Z,9.45
2023-05-01T05:07:54.646Z,9.45
2023-05-01T05:08:54.597Z,9.46
2023-05-01T05:09:54.775Z,9.47
2023-05-01T05:10:54.579Z,9.48
2023-05-01T05:11:54.596Z,9.48
2023-05-01T05:12:54.565Z,9.49
2023-05-01T05:13:54.571Z,9.50
2023-05-01T05:14:54.543Z,9.51
2023-05-01T05:15:54.644Z,9.52
2023-05-01T05:16:54.554Z,9.53
2023-05-01T05:17:56.579Z,9.54
2023-05-01T05:18:54.482Z,9.55
2023-05-01T05:19:54.787Z,9.56
2023-05-01T05:20:54.471Z,9.57
2023-05-01T05:21:54.480Z,9.58
2023-05-01T05:22:54.446Z,9.59
2023-05-01T05:23:54.432Z,9.60
2023-05-01T05:24:54.411Z,9.61
2023-05-01T05:25:54.422Z,9.62
2023-05-01T05:26:54.593Z,9.63
2023-05-01T05:27:54.408Z,9.64
2023-05-01T05:28:54.369Z,9.65
2023-05-01T05:29:54.688Z,9.66
2023-05-01T05:30:54.474Z,9.68
2023-05-01T05:31:54.432Z,9.69
2023-05-01T05:32:54.530Z,9.70
2023-05-01T05:33:54.367Z,9.72
2023-05-01T05:34:54.629Z,9.73
2023-05-01T05:35:54.592Z,9.75
2023-05-01T05:36:55.130Z,9.77
2023-05-01T05:37:54.614Z,9.78
2023-05-01T05:38:54.259Z,9.79
2023-05-01T05:39:54.490Z,9.81
2023-05-01T05:40:54.229Z,9.83
2023-05-01T05:41:54.355Z,9.84
2023-05-01T05:42:54.194Z,9.86
2023-05-01T05:43:54.259Z,9.88
2023-05-01T05:44:54.182Z,9.90
2023-05-01T05:45:54.490Z,9.91
2023-05-01T05:46:54.160Z,9.93
2023-05-01T05:47:54.198Z,9.94
2023-05-01T05:48:54.565Z,9.96
2023-05-01T05:49:54.808Z,9.98
2023-05-01T05:50:54.485Z,9.99
2023-05-01T05:51:54.236Z,10.01
2023-05-01T05:52:54.091Z,10.03
2023-05-01T05:53:54.623Z,10.04
2023-05-01T05:54:54.747Z,10.05
2023-05-01T05:55:54.623Z,10.07
2023-05-01T05:56:54.034Z,10.09
2023-05-01T05:57:54.198Z,10.10
2023-05-01T05:58:54.047Z,10.11
2023-05-01T05:59:54.181Z,10.13
2023-05-01T06:00:54.624Z,10.14
2023-05-01T06:01:54.630Z,10.16
2023-05-01T06:02:54.735Z,10.17
2023-05-01T06:03:54.037Z,10.19
2023-05-01T06:04:53.949Z,10.20
2023-05-01T06:05:54.443Z,10.22
2023-05-01T06:06:54.854Z,10.23
2023-05-01T06:07:53.926Z,10.25
2023-05-01T06:08:54.636Z,10.27
2023-05-01T06:09:54.893Z,10.28
2023-05-01T06:10:54.642Z,10.30
2023-05-01T06:11:54.646Z,10.31
2023-05-01T06:13:02.881Z,10.33
2023-05-01T06:13:54.861Z,10.35
2023-05-01T06:14:54.641Z,10.36
2023-05-01T06:15:53.953Z,10.38
2023-05-01T06:16:53.809Z,10.40
2023-05-01T06:17:53.838Z,10.41
2023-05-01T06:18:53.809Z,10.43
2023-05-01T06:19:54.059Z,10.45
2023-05-01T06:20:53.842Z,10.47
2023-05-01T06:21:53.862Z,10.50
2023-05-01T06:22:53.868Z,10.53
2023-05-01T06:23:53.885Z,10.56
2023-05-01T06:24:53.893Z,10.59
2023-05-01T06:25:53.729Z,10.63
2023-05-01T06:26:53.685Z,10.66
2023-05-01T06:27:53.689Z,10.69
2023-05-01T06:28:53.678Z,10.72
2023-05-01T06:29:53.829Z,10.75
2023-05-01T06:30:53.695Z,10.79
2023-05-01T06:31:53.696Z,10.82
2023-05-01T06:32:53.665Z,10.85
2023-05-01T06:33:53.633Z,10.89
2023-05-01T06:34:53.656Z,10.92
2023-05-01T06:35:53.659Z,10.96
2023-05-01T06:36:53.592Z,11.00
2023-05-01T06:37:53.679Z,11.04
2023-05-01T06:38:53.567Z,11.07
2023-05-01T06:39:53.694Z,11.11
2023-05-01T06:40:53.522Z,11.15
2023-05-01T06:41:53.522Z,11.19
2023-05-01T06:42:53.665Z,11.22
2023-05-01T06:43:53.507Z,11.25
2023-05-01T06:44:53.483Z,11.28
2023-05-01T06:45:53.671Z,11.32
2023-05-01T06:46:53.468Z,11.36
2023-05-01T06:47:53.722Z,11.40
2023-05-01T06:48:53.442Z,11.44
2023-05-01T06:49:53.524Z,11.49
2023-05-01T06:50:53.683Z,11.53
2023-05-01T06:51:53.415Z,11.58
2023-05-01T06:52:53.382Z,11.62
2023-05-01T06:53:53.669Z,11.67
2023-05-01T06:54:53.362Z,11.71
2023-05-01T06:55:53.459Z,11.75
2023-05-01T06:56:53.340Z,11.80
2023-05-01T06:57:53.335Z,11.83
2023-05-01T06:58:53.587Z,11.87
2023-05-01T06:59:53.796Z,11.91
2023-05-01T07:00:53.895Z,11.94
2023-05-01T07:01:53.720Z,11.98
2023-05-01T07:02:53.768Z,12.02
2023-05-01T07:03:53.292Z,12.05
2023-05-01T07:04:53.262Z,12.09
2023-05-01T07:05:53.258Z,12.12
2023-05-01T07:06:53.701Z,12.16
2023-05-01T07:08:01.251Z,12.21
2023-05-01T07:08:54.196Z,12.24
2023-05-01T07:09:53.725Z,12.28
2023-05-01T07:10:53.182Z,12.31
2023-05-01T07:11:53.185Z,12.35
2023-05-01T07:12:53.146Z,12.38
2023-05-01T07:13:53.161Z,12.40
2023-05-01T07:14:53.134Z,12.43
2023-05-01T07:15:54.642Z,12.46
2023-05-01T07:16:53.223Z,12.49
2023-05-01T07:17:53.248Z,12.53
2023-05-01T07:18:53.076Z,12.56
2023-05-01T07:19:53.082Z,12.59
2023-05-01T07:20:53.063Z,12.62
2023-05-01T07:21:53.073Z,12.65
2023-05-01T07:22:53.376Z,12.68
2023-05-01T07:23:53.044Z,12.71
2023-05-01T07:24:53.008Z,12.74
2023-05-01T07:25:53.033Z,12.77
2023-05-01T07:26:53.011Z,12.79
2023-05-01T07:27:53.039Z,12.82
2023-05-01T07:28:52.962Z,12.85
2023-05-01T07:29:52.966Z,12.88
2023-05-01T07:30:52.962Z,12.91
2023-05-01T07:31:52.978Z,12.94
2023-05-01T07:32:53.002Z,12.98
2023-05-01T07:33:54.319Z,13.04
2023-05-01T07:34:52.898Z,13.10
2023-05-01T07:35:53.228Z,13.17
2023-05-01T07:36:52.890Z,13.25
2023-05-01T07:37:53.711Z,13.34
2023-05-01T07:38:53.257Z,13.43
2023-05-01T07:39:52.839Z,13.53
2023-05-01T07:40:52.925Z,13.63
2023-05-01T07:41:52.892Z,13.71
2023-05-01T07:42:54.448Z,13.78
2023-05-01T07:43:52.806Z,13.84
2023-05-01T07:44:52.911Z,13.90
2023-05-01T07:45:52.831Z,13.95
2023-05-01T07:46:52.778Z,13.99
2023-05-01T07:47:52.807Z,14.01
2023-05-01T07:48:52.738Z,14.02
2023-05-01T07:49:52.734Z,14.03
2023-05-01T07:50:52.729Z,14.05
2023-05-01T07:51:52.751Z,14.07
2023-05-01T07:52:52.705Z,14.10
2023-05-01T07:53:52.694Z,14.12
2023-05-01T07:54:52.706Z,14.14
2023-05-01T07:55:52.683Z,14.18
2023-05-01T07:56:52.679Z,14.22
2023-05-01T07:57:52.671Z,14.29
2023-05-01T07:58:52.634Z,14.36
2023-05-01T07:59:52.631Z,14.44
2023-05-01T08:00:52.611Z,14.53
2023-05-01T08:01:52.720Z,14.63
2023-05-01T08:02:52.671Z,14.72
2023-05-01T08:03:52.711Z,14.80
2023-05-01T08:04:52.641Z,14.88
2023-05-01T08:05:52.613Z,14.96
2023-05-01T08:06:52.740Z,15.05
2023-05-01T08:07:52.533Z,15.11
2023-05-01T08:08:52.485Z,15.17
2023-05-01T08:09:52.487Z,15.21
2023-05-01T08:10:52.470Z,15.23
2023-05-01T08:11:52.488Z,15.23
2023-05-01T08:12:52.438Z,15.23
2023-05-01T08:13:52.443Z,15.24
2023-05-01T08:14:52.423Z,15.26
2023-05-01T08:15:52.467Z,15.30
2023-05-01T08:16:52.419Z,15.34
2023-05-01T08:17:52.405Z,15.40
2023-05-01T08:18:52.394Z,15.46
2023-05-01T08:19:52.379Z,15.50
2023-05-01T08:20:52.346Z,15.51
2023-05-01T08:21:52.366Z,15.53
2023-05-01T08:22:52.324Z,15.55
2023-05-01T08:23:52.334Z,15.59
2023-05-01T08:24:52.735Z,15.63
2023-05-01T08:25:52.320Z,15.68
2023-05-01T08:26:52.277Z,15.73
2023-05-01T08:27:52.305Z,15.78
2023-05-01T08:28:52.257Z,15.81
2023-05-01T08:29:52.272Z,15.85
2023-05-01T08:30:52.257Z,15.90
2023-05-01T08:31:52.319Z,15.95
2023-05-01T08:32:52.259Z,15.99
2023-05-01T08:33:52.233Z,16.03
2023-05-01T08:34:52.197Z,16.06
2023-05-01T08:35:52.189Z,16.10
2023-05-01T08:36:52.167Z,16.14
2023-05-01T08:37:52.160Z,16.19
2023-05-01T08:38:52.160Z,16.22
2023-05-01T08:39:52.152Z,16.23
2023-05-01T08:40:52.126Z,16.23
2023-05-01T08:41:52.135Z,16.21
2023-05-01T08:42:52.101Z,16.19
2023-05-01T08:43:52.097Z,16.17
2023-05-01T08:44:52.094Z,16.15
2023-05-01T08:45:52.069Z,16.10
2023-05-01T08:46:52.092Z,16.05
2023-05-01T08:47:52.056Z,15.99
2023-05-01T08:48:52.038Z,15.95
2023-05-01T08:49:52.044Z,15.92
2023-05-01T08:50:52.029Z,15.90
2023-05-01T08:51:51.994Z,15.85
2023-05-01T08:52:51.989Z,15.80
2023-05-01T08:53:51.965Z,15.74
2023-05-01T08:54:51.990Z,15.70
2023-05-01T08:55:51.948Z,15.66
2023-05-01T08:56:51.953Z,15.62
2023-05-01T08:57:51.923Z,15.59
2023-05-01T08:58:51.924Z,15.57
2023-05-01T08:59:51.949Z,15.56
2023-05-01T09:00:51.893Z,15.54
2023-05-01T09:01:51.909Z,15.54
2023-05-01T09:02:51.983Z,15.57
2023-05-01T09:03:51.921Z,15.60
2023-05-01T09:04:51.872Z,15.62
2023-05-01T09:05:51.849Z,15.64
2023-05-01T09:06:51.951Z,15.66
2023-05-01T09:07:51.827Z,15.68
2023-05-01T09:08:51.820Z,15.71
2023-05-01T09:09:51.815Z,15.73
2023-05-01T09:10:51.816Z,15.74
2023-05-01T09:11:51.787Z,15.74
2023-05-01T09:12:51.777Z,15.72
2023-05-01T09:13:51.758Z,15.72
2023-05-01T09:14:51.779Z,15.72
2023-05-01T09:15:51.805Z,15.72
2023-05-01T09:16:51.753Z,15.74
2023-05-01T09:17:51.707Z,15.77
2023-05-01T09:18:51.681Z,15.80
2023-05-01T09:19:51.695Z,15.83
2023-05-01T09:20:51.688Z,15.86
2023-05-01T09:21:51.643Z,15.89
2023-05-01T09:22:51.651Z,15.90
2023-05-01T09:23:51.633Z,15.89
2023-05-01T09:24:51.646Z,15.86
2023-05-01T09:25:52.140Z,15.82
2023-05-01T09:26:51.610Z,15.79
2023-05-01T09:27:51.587Z,15.75
2023-05-01T09:28:51.622Z,15.71
2023-05-01T09:29:51.580Z,15.67
2023-05-01T09:30:51.578Z,15.63
2023-05-01T09:31:51.580Z,15.59
2023-05-01T09:32:51.546Z,15.56
2023-05-01T09:33:51.637Z,15.55
2023-05-01T09:34:51.553Z,15.55
2023-05-01T09:35:51.616Z,15.55
2023-05-01T09:36:51.491Z,15.53
2023-05-01T09:37:51.463Z,15.51
2023-05-01T09:38:51.479Z,15.51
2023-05-01T09:39:51.449Z,15.51
2023-05-01T09:40:51.447Z,15.52
2023-05-01T09:41:51.454Z,15.53
2023-05-01T09:42:51.440Z,15.53
2023-05-01T09:43:51.416Z,15.53
2023-05-01T09:44:51.401Z,15.53
2023-05-01T09:45:51.462Z,15.52
2023-05-01T09:46:51.376Z,15.51
2023-05-01T09:47:51.362Z,15.49
2023-05-01T09:48:51.351Z,15.48
2023-05-01T09:49:51.316Z,15.46
2023-05-01T09:50:51.374Z,15.44
2023-05-01T09:51:51.286Z,15.41
2023-05-01T09:52:51.312Z,15.40
2023-05-01T09:53:51.283Z,15.39
2023-05-01T09:54:51.301Z,15.39
2023-05-01T09:55:51.258Z,15.39
2023-05-01T09:56:51.319Z,15.38
2023-05-01T09:57:51.234Z,15.39
2023-05-01T09:58:51.274Z,15.40
2023-05-01T09:59:51.274Z,15.41
2023-05-01T10:00:51.390Z,15.42
2023-05-01T10:01:51.292Z,15.44
2023-05-01T10:02:51.407Z,15.47
2023-05-01T10:03:51.545Z,15.49
2023-05-01T10:04:51.173Z,15.53
2023-05-01T10:05:51.157Z,15.58
2023-05-01T10:06:51.223Z,15.63
2023-05-01T10:07:51.111Z,15.69
2023-05-01T10:08:51.098Z,15.75
2023-05-01T10:09:51.078Z,15.79
2023-05-01T10:10:51.123Z,15.84
2023-05-01T10:11:51.064Z,15.88
2023-05-01T10:12:51.060Z,15.92
2023-05-01T10:13:51.083Z,15.94
2023-05-01T10:14:51.181Z,15.97
2023-05-01T10:15:51.828Z,15.97
2023-05-01T10:16:51.755Z,15.98
2023-05-01T10:17:51.042Z,16.00
2023-05-01T10:18:50.990Z,16.03
2023-05-01T10:19:50.967Z,16.07
2023-05-01T10:20:50.990Z,16.12
2023-05-01T10:21:50.961Z,16.18
2023-05-01T10:22:50.972Z,16.24
2023-05-01T10:23:50.917Z,16.31
2023-05-01T10:24:50.928Z,16.38
2023-05-01T10:25:50.894Z,16.46
2023-05-01T10:26:50.915Z,16.53
2023-05-01T10:27:50.880Z,16.59
2023-05-01T10:28:50.867Z,16.65
2023-05-01T10:29:50.856Z,16.71
2023-05-01T10:30:50.867Z,16.77
2023-05-01T10:31:50.913Z,16.83
2023-05-01T10:32:50.875Z,16.87
2023-05-01T10:33:50.786Z,16.91
2023-05-01T10:34:50.792Z,16.95
2023-05-01T10:35:50.766Z,16.98
2023-05-01T10:36:50.794Z,17.01
2023-05-01T10:37:50.750Z,17.05
2023-05-01T10:38:50.746Z,17.10
2023-05-01T10:39:50.712Z,17.15
2023-05-01T10:40:50.852Z,17.19
2023-05-01T10:41:50.724Z,17.22
2023-05-01T10:42:50.723Z,17.25
2023-05-01T10:43:50.676Z,17.28
2023-05-01T10:44:50.673Z,17.31
2023-05-01T10:45:50.664Z,17.34
2023-05-01T10:46:50.705Z,17.37
2023-05-01T10:47:50.944Z,17.39
2023-05-01T10:48:50.634Z,17.42
2023-05-01T10:49:50.605Z,17.43
2023-05-01T10:50:50.608Z,17.44
2023-05-01T10:51:50.614Z,17.44
2023-05-01T10:52:50.596Z,17.44
2023-05-01T10:53:50.574Z,17.46
2023-05-01T10:54:50.576Z,17.48
2023-05-01T10:55:50.544Z,17.51
2023-05-01T10:56:50.575Z,17.55
2023-05-01T10:57:50.508Z,17.59
2023-05-01T10:58:50.512Z,17.61
2023-05-01T10:59:50.494Z,17.62
2023-05-01T11:00:50.493Z,17.63
2023-05-01T11:01:50.577Z,17.66
2023-05-01T11:02:50.512Z,17.70
2023-05-01T11:03:50.433Z,17.72
2023-05-01T11:04:50.587Z,17.73
2023-05-01T11:05:50.473Z,17.74
2023-05-01T11:06:50.480Z,17.74
2023-05-01T11:07:50.386Z,17.72
2023-05-01T11:08:50.494Z,17.70
2023-05-01T11:09:50.379Z,17.69
2023-05-01T11:10:50.385Z,17.69
2023-05-01T11:11:50.529Z,17.71
2023-05-01T11:12:50.359Z,17.72
2023-05-01T11:13:50.646Z,17.74
2023-05-01T11:14:50.330Z,17.76
2023-05-01T11:15:50.332Z,17.77
2023-05-01T11:16:50.791Z,17.77
2023-05-01T11:17:50.360Z,17.76
2023-05-01T11:18:50.279Z,17.73
2023-05-01T11:19:50.266Z,17.70
2023-05-01T11:20:50.261Z,17.67
2023-05-01T11:21:50.239Z,17.65
2023-05-01T11:22:50.271Z,17.63
2023-05-01T11:23:50.216Z,17.61
2023-05-01T11:24:50.324Z,17.59
2023-05-01T11:25:50.187Z,17.57
2023-05-01T11:26:50.189Z,17.56
2023-05-01T11:27:50.175Z,17.55
2023-05-01T11:28:50.191Z,17.55
2023-05-01T11:29:50.155Z,17.54
2023-05-01T11:30:51.182Z,17.54
2023-05-01T11:31:50.164Z,17.53
2023-05-01T11:32:51.068Z,17.53
2023-05-01T11:33:50.865Z,17.52
2023-05-01T11:34:50.112Z,17.52
2023-05-01T11:35:50.061Z,17.51
2023-05-01T11:36:50.080Z,17.49
2023-05-01T11:37:50.068Z,17.46
2023-05-01T11:38:50.075Z,17.44
2023-05-01T11:39:50.038Z,17.43
2023-05-01T11:40:50.125Z,17.42
2023-05-01T11:41:50.059Z,17.41
2023-05-01T11:42:50.002Z,17.40
2023-05-01T11:43:49.990Z,17.38
2023-05-01T11:44:49.985Z,17.37
2023-05-01T11:45:50.250Z,17.36
2023-05-01T11:46:50.019Z,17.37
2023-05-01T11:47:50.063Z,17.37
2023-05-01T11:48:50.227Z,17.37
2023-05-01T11:49:49.909Z,17.38
2023-05-01T11:50:49.923Z,17.38
2023-05-01T11:51:49.910Z,17.38
2023-05-01T11:52:49.915Z,17.39
2023-05-01T11:53:49.858Z,17.40
2023-05-01T11:54:49.891Z,17.41
2023-05-01T11:55:49.848Z,17.42
2023-05-01T11:56:49.922Z,17.43
2023-05-01T11:57:49.862Z,17.44
2023-05-01T11:58:49.850Z,17.44
2023-05-01T11:59:49.798Z,17.44
2023-05-01T12:00:49.808Z,17.43
2023-05-01T12:01:49.818Z,17.42
2023-05-01T12:02:49.923Z,17.41
2023-05-01T12:03:49.842Z,17.41
2023-05-01T12:04:49.783Z,17.39
2023-05-01T12:05:49.732Z,17.39
2023-05-01T12:06:50.015Z,17.38
2023-05-01T12:07:49.719Z,17.38
2023-05-01T12:08:49.719Z,17.38
2023-05-01T12:09:49.674Z,17.38
2023-05-01T12:10:49.704Z,17.38
2023-05-01T12:11:52.294Z,17.38
2023-05-01T12:12:49.667Z,17.39
2023-05-01T12:13:49.665Z,17.40
2023-05-01T12:14:49.644Z,17.41
2023-05-01T12:15:49.608Z,17.42
2023-05-01T12:16:49.736Z,17.43
2023-05-01T12:17:49.677Z,17.44
2023-05-01T12:18:49.600Z,17.45
2023-05-01T12:19:49.562Z,17.46
2023-05-01T12:20:49.577Z,17.47
2023-05-01T12:21:49.547Z,17.47
2023-05-01T12:22:49.548Z,17.48
2023-05-01T12:23:49.543Z,17.48
2023-05-01T12:24:49.535Z,17.49
2023-05-01T12:25:49.498Z,17.49
2023-05-01T12:26:49.512Z,17.49
2023-05-01T12:27:49.477Z,17.49
2023-05-01T12:28:49.490Z,17.48
2023-05-01T12:29:49.444Z,17.48
2023-05-01T12:30:49.516Z,17.48
2023-05-01T12:31:49.561Z,17.47
2023-05-01T12:32:49.479Z,17.46
2023-05-01T12:33:49.402Z,17.46
2023-05-01T12:34:49.424Z,17.46
2023-05-01T12:35:49.447Z,17.46
2023-05-01T12:36:49.395Z,17.46
2023-05-01T12:37:49.365Z,17.46
2023-05-01T12:38:49.351Z,17.46
2023-05-01T12:39:49.367Z,17.45
2023-05-01T12:40:49.543Z,17.45
2023-05-01T12:41:49.449Z,17.45
2023-05-01T12:42:49.351Z,17.45
2023-05-01T12:43:49.306Z,17.45
2023-05-01T12:44:49.308Z,17.45
2023-05-01T12:45:49.268Z,17.45
2023-05-01T12:46:49.317Z,17.45
2023-05-01T12:47:49.267Z,17.44
2023-05-01T12:48:49.272Z,17.44
2023-05-01T12:49:49.521Z,17.45
2023-05-01T12:50:49.902Z,17.45
2023-05-01T12:51:49.197Z,17.46
2023-05-01T12:52:49.197Z,17.46
2023-05-01T12:53:49.191Z,17.47
2023-05-01T12:54:49.170Z,17.48
2023-05-01T12:55:49.159Z,17.48
2023-05-01T12:56:49.184Z,17.49
2023-05-01T12:57:49.134Z,17.49
2023-05-01T12:58:49.177Z,17.50
2023-05-01T12:59:49.126Z,17.51
2023-05-01T13:00:49.194Z,17.52
2023-05-01T13:01:49.169Z,17.51
2023-05-01T13:02:49.261Z,17.50
2023-05-01T13:03:49.105Z,17.49
2023-05-01T13:04:49.634Z,17.46